This is the latest recevied weather packets stored in our database for station/object HJ3GNC-15. If no packets are shown the sender has not sent any weather packets the latest 10 day(s).
| Time | Temp. | Humidity | Pressure | Rain* | Wind** | Luminosity | Snow |
|---|---|---|---|---|---|---|---|
| 1777260772 | 15.56° C | 91% | 1015 hPa | 0 mm | - | - | - |
| 1777259759 | 15.56° C | 90% | 1014 hPa | 0 mm | - | - | - |
| 1777258811 | 15.56° C | 92% | 1014 hPa | 0 mm | - | - | - |
| 1777257851 | 15.56° C | 92% | 1014 hPa | 0 mm | - | - | - |
| 1777256907 | 16.11° C | 90% | 1014 hPa | 0 mm | - | - | - |
| 1777255942 | 15.56° C | 91% | 1014 hPa | 0 mm | - | - | - |
| 1777254980 | 15.56° C | 93% | 1014 hPa | 0 mm | - | - | - |
| 1777254036 | 15.56° C | 93% | 1014 hPa | 0 mm | - | - | - |
| 1777253092 | 15.56° C | 91% | 1013 hPa | 0 mm | - | - | - |
| 1777252150 | 16.11° C | 89% | 1012 hPa | 0 mm | - | - | - |
| 1777251166 | 16.11° C | 92% | 1013 hPa | 0 mm | - | - | - |
| 1777250135 | 16.11° C | 92% | 1013 hPa | 0 mm | - | - | - |
| 1777249189 | 16.67° C | 88% | 1011 hPa | 0 mm | - | - | - |
| 1777248244 | 16.67° C | 87% | 1011 hPa | 0 mm | - | - | - |
| 1777247300 | 16.67° C | 87% | 1011 hPa | 0 mm | - | - | - |
| 1777246340 | 16.67° C | 87% | 1011 hPa | 0 mm | - | - | - |
| 1777245381 | 18.33° C | 82% | 1010 hPa | 0 mm | - | - | - |
| 1777244430 | 17.78° C | 84% | 1010 hPa | 0 mm | - | - | - |
| 1777243482 | 18.33° C | 84% | 1010 hPa | 0 mm | - | - | - |
| 1777242522 | 20° C | 78% | 1009 hPa | 0 mm | - | - | - |
| 1777241561 | 20° C | 77% | 1009 hPa | 0 mm | - | - | - |
| 1777240602 | 20° C | 80% | 1009 hPa | 0 mm | - | - | - |
| 1777239656 | 20° C | 80% | 1009 hPa | 0 mm | - | - | - |
| 1777238715 | 20.56° C | 71% | 1009 hPa | 0 mm | - | - | - |
| 1777236692 | 20.56° C | 73% | 1009 hPa | 0 mm | - | - | - |
* Rain latest hour (hover to see other rain measurements)
** Current wind speed in m/s (hover to see current wind gust speed)